Time;durP1;ratioP1;P1;durP2;ratioP2;P2;SDS_P1;SDS_P2;PMS_P1;PMS_P2;Temp;Humidity;BMP_temperature;BMP_pressure;BME280_temperature;BME280_humidity;BME280_pressure;Samples;Min_cycle;Max_cycle;Signal;HPM_P1;HPM_P2
2021/08/28 00:02:10;;;;;;;3.35;0.95;;;;;;;14.93;76.88;101974.03;5093431;28;20024;-82
2021/08/28 00:04:36;;;;;;;1.85;0.90;;;;;;;14.96;76.79;101973.50;5096436;28;20038;-81
2021/08/28 00:07:02;;;;;;;2.00;1.00;;;;;;;14.97;77.01;101966.88;5094981;28;20045;-82
2021/08/28 00:09:27;;;;;;;1.60;1.00;;;;;;;14.98;76.72;101976.78;5089497;28;20044;-81
2021/08/28 00:11:53;;;;;;;1.30;0.90;;;;;;;14.99;76.82;101975.69;5094662;28;20431;-81
2021/08/28 00:14:18;;;;;;;2.75;1.30;;;;;;;15.00;76.74;101977.31;5094650;28;20027;-81
2021/08/28 00:16:43;;;;;;;1.67;1.20;;;;;;;15.02;76.71;101980.63;5094295;28;20028;-80
2021/08/28 00:19:09;;;;;;;1.60;1.00;;;;;;;15.03;76.87;101973.19;5092405;28;20035;-83
2021/08/28 00:21:34;;;;;;;1.70;1.10;;;;;;;15.05;76.88;101957.28;5089553;28;20082;-82
2021/08/28 00:24:01;;;;;;;1.63;1.10;;;;;;;15.05;76.87;101971.81;5094382;28;20392;-81
2021/08/28 00:26:27;;;;;;;2.08;1.20;;;;;;;15.03;76.84;101971.31;5092390;28;20469;-80
2021/08/28 00:28:52;;;;;;;1.83;1.20;;;;;;;15.04;76.95;101970.19;5080506;28;20393;-81
2021/08/28 00:31:18;;;;;;;3.65;1.63;;;;;;;15.03;76.94;101968.56;5091379;28;20027;-81
2021/08/28 00:33:43;;;;;;;2.38;1.25;;;;;;;15.01;76.96;101970.75;5086940;28;20028;-80
2021/08/28 00:36:09;;;;;;;1.75;1.40;;;;;;;15.01;76.81;101978.16;5094039;28;20030;-81
2021/08/28 00:38:34;;;;;;;1.80;1.13;;;;;;;15.01;76.97;101976.25;5088812;28;20493;-82
2021/08/28 00:40:59;;;;;;;2.45;1.10;;;;;;;14.99;77.07;101983.91;5093076;28;20081;-82
2021/08/28 00:43:25;;;;;;;3.15;1.52;;;;;;;14.95;76.99;101982.84;5094201;28;20077;-81
2021/08/28 00:45:51;;;;;;;1.98;1.08;;;;;;;14.93;77.14;101985.03;5094134;28;20024;-81
2021/08/28 00:48:16;;;;;;;3.60;1.65;;;;;;;14.93;77.02;101993.25;5093240;28;20050;-82
2021/08/28 00:50:42;;;;;;;2.38;1.38;;;;;;;14.94;77.12;101986.66;5088501;28;20385;-81
2021/08/28 00:53:09;;;;;;;3.13;1.08;;;;;;;14.95;77.22;101982.00;5090398;28;20028;-81
2021/08/28 00:55:35;;;;;;;2.08;1.50;;;;;;;14.94;77.07;101980.34;5091872;28;20020;-82
2021/08/28 00:58:00;;;;;;;1.52;1.13;;;;;;;14.93;77.26;101996.00;5093099;28;20407;-81
2021/08/28 01:00:26;;;;;;;2.70;1.20;;;;;;;14.94;77.06;101992.16;5088844;28;20038;-81
2021/08/28 01:02:51;;;;;;;2.90;1.27;;;;;;;14.96;77.18;101995.47;5092108;28;20150;-81
2021/08/28 01:05:29;;;;;;;1.63;1.20;;;;;;;14.96;77.07;102000.13;5070846;28;20067;-81
2021/08/28 01:08:18;;;;;;;1.42;1.10;;;;;;;14.98;77.18;102001.50;5092947;28;20028;-81
2021/08/28 01:10:50;;;;;;;2.85;1.10;;;;;;;14.98;76.99;101996.00;5092710;28;20069;-81
2021/08/28 01:13:15;;;;;;;1.63;1.08;;;;;;;15.00;76.99;102004.78;5091366;28;20110;-81
2021/08/28 01:15:41;;;;;;;3.30;1.42;;;;;;;15.00;77.12;101996.53;5092188;28;20131;-81
2021/08/28 01:18:08;;;;;;;1.75;1.35;;;;;;;14.99;77.01;102000.41;5070386;28;20032;-80
2021/08/28 01:20:45;;;;;;;2.08;1.35;;;;;;;15.00;76.99;101995.72;5076430;28;20030;-80
2021/08/28 01:23:11;;;;;;;2.20;1.45;;;;;;;15.00;76.82;101996.53;5089755;28;20023;-80
2021/08/28 01:25:36;;;;;;;2.00;1.40;;;;;;;15.00;77.07;101999.28;5072351;28;20050;-80
2021/08/28 01:28:10;;;;;;;2.25;1.45;;;;;;;15.00;77.11;101996.53;5093790;28;20032;-81
2021/08/28 01:30:35;;;;;;;2.22;1.30;;;;;;;15.00;77.09;101993.78;5075762;28;20119;-81
2021/08/28 01:33:02;;;;;;;2.05;1.20;;;;;;;15.02;77.01;101999.84;5078493;28;20455;-81
2021/08/28 01:35:27;;;;;;;1.98;1.30;;;;;;;15.03;76.92;102000.66;5091686;28;20020;-81
2021/08/28 01:37:53;;;;;;;1.77;1.27;;;;;;;15.03;76.90;102001.50;5082732;28;20374;-81
2021/08/28 01:40:18;;;;;;;2.47;1.20;;;;;;;15.04;77.09;102005.06;5093189;28;20550;-80
2021/08/28 01:42:44;;;;;;;2.65;1.80;;;;;;;15.03;76.81;102007.00;5075652;28;20032;-80
2021/08/28 01:45:13;;;;;;;3.05;1.75;;;;;;;15.04;76.90;102013.31;5075061;28;20533;-81
2021/08/28 01:47:42;;;;;;;2.95;1.40;;;;;;;15.04;76.93;102010.56;5086674;28;20020;-80
2021/08/28 01:50:09;;;;;;;3.25;1.33;;;;;;;15.03;76.84;102015.25;5056942;28;20027;-80
2021/08/28 01:52:34;;;;;;;4.78;1.70;;;;;;;15.01;76.91;102019.38;5089950;28;20024;-80
2021/08/28 01:55:01;;;;;;;3.00;1.58;;;;;;;14.96;76.98;102014.69;5094820;28;20028;-81
2021/08/28 01:57:26;;;;;;;2.50;1.58;;;;;;;14.90;76.83;102018.53;5092729;28;20073;-82
2021/08/28 01:59:52;;;;;;;2.40;1.63;;;;;;;14.86;77.00;102012.72;5092950;28;20517;-82
2021/08/28 02:02:17;;;;;;;3.13;1.98;;;;;;;14.84;77.23;102009.47;5061797;28;20020;-82
2021/08/28 02:04:43;;;;;;;2.03;1.30;;;;;;;14.83;77.09;102006.97;5092381;28;20028;-82
2021/08/28 02:07:41;;;;;;;3.13;2.00;;;;;;;14.83;77.21;102004.22;5066008;28;20445;-82
2021/08/28 02:10:13;;;;;;;2.65;2.00;;;;;;;14.83;77.07;102007.78;5080321;28;20044;-81
2021/08/28 02:12:42;;;;;;;2.60;1.57;;;;;;;14.85;77.24;102002.03;5068021;28;20055;-81
2021/08/28 02:15:32;;;;;;;1.80;1.48;;;;;;;14.82;77.21;101994.34;5093087;28;20787;-82
2021/08/28 02:18:20;;;;;;;3.20;1.73;;;;;;;14.77;77.27;101997.09;5086895;28;20066;-81
2021/08/28 02:20:54;;;;;;;2.92;2.10;;;;;;;14.77;77.50;101986.09;5086292;28;20039;-80
2021/08/28 02:23:26;;;;;;;2.35;1.45;;;;;;;14.79;77.25;101984.75;5072276;28;20020;-81
2021/08/28 02:25:58;;;;;;;2.42;1.55;;;;;;;14.81;77.38;101981.69;5093628;28;20031;-82
2021/08/28 02:28:26;;;;;;;;;;;;;;;14.82;77.19;101969.66;5085914;28;20020;-80
2021/08/28 02:30:51;;;;;;;3.67;1.70;;;;;;;14.82;77.42;101978.69;5089371;28;20387;-82
2021/08/28 02:33:17;;;;;;;5.55;1.70;;;;;;;14.82;77.41;101988.88;5074520;28;20020;-81
2021/08/28 02:35:42;;;;;;;2.47;2.03;;;;;;;14.82;77.64;101988.88;5088430;28;20031;-81
2021/08/28 02:38:07;;;;;;;4.93;2.33;;;;;;;14.83;77.37;101985.00;5073337;28;20031;-81
2021/08/28 02:40:34;;;;;;;3.38;2.25;;;;;;;14.84;77.29;101986.66;5091937;28;20039;-80
2021/08/28 02:42:59;;;;;;;3.00;2.05;;;;;;;14.83;77.44;101988.56;5069177;28;20034;-81
2021/08/28 02:45:26;;;;;;;4.38;2.22;;;;;;;14.85;77.68;101983.63;5093446;28;20065;-81
2021/08/28 02:47:51;;;;;;;3.75;1.80;;;;;;;14.87;77.50;101977.88;5072159;28;20107;-81
2021/08/28 02:50:17;;;;;;;4.68;2.10;;;;;;;14.87;77.42;101975.13;5079738;28;20119;-82
2021/08/28 02:52:47;;;;;;;4.32;2.20;;;;;;;14.87;77.54;101986.94;5067494;28;20359;-81
2021/08/28 02:55:13;;;;;;;5.43;2.55;;;;;;;14.89;77.45;101983.91;5072831;28;20055;-82
2021/08/28 02:57:39;;;;;;;3.40;2.42;;;;;;;14.90;77.30;101977.34;5067541;28;20024;-81
2021/08/28 03:00:05;;;;;;;2.97;2.30;;;;;;;14.92;77.40;101977.03;5069841;28;20085;-82
2021/08/28 03:02:31;;;;;;;2.50;2.28;;;;;;;14.92;77.30;101977.03;5081784;28;20033;-81
2021/08/28 03:04:57;;;;;;;3.28;2.28;;;;;;;14.91;77.40;101975.41;5068386;28;20028;-81
2021/08/28 03:07:22;;;;;;;3.95;2.30;;;;;;;14.93;77.35;101978.72;5077139;28;20035;-81
2021/08/28 03:09:48;;;;;;;4.40;2.80;;;;;;;14.92;77.35;101980.59;5072310;28;20028;-81
2021/08/28 03:12:14;;;;;;;3.35;2.30;;;;;;;14.92;77.24;101968.81;5087355;28;20020;-81
2021/08/28 03:14:40;;;;;;;3.30;2.25;;;;;;;14.91;77.34;101972.66;5054432;28;20051;-81
2021/08/28 03:17:05;;;;;;;3.13;2.80;;;;;;;14.91;77.37;101978.97;5081586;28;20386;-81
2021/08/28 03:19:30;;;;;;;3.25;2.75;;;;;;;14.90;77.35;101974.59;5076382;28;20035;-81
2021/08/28 03:21:56;;;;;;;2.50;2.17;;;;;;;14.92;77.32;101977.88;5071851;28;20043;-82
2021/08/28 03:24:25;;;;;;;3.17;2.60;;;;;;;14.93;77.25;101978.72;5078063;28;20021;-81
2021/08/28 03:26:52;;;;;;;4.38;2.88;;;;;;;14.91;77.25;101973.47;5067818;28;20480;-81
2021/08/28 03:29:20;;;;;;;4.43;2.50;;;;;;;14.93;77.13;101978.72;5086284;28;20376;-81
2021/08/28 03:31:45;;;;;;;5.15;3.13;;;;;;;14.92;77.28;101966.88;5070598;28;20035;-80
2021/08/28 03:34:11;;;;;;;4.70;2.88;;;;;;;14.93;77.36;101976.78;5083292;28;20028;-81
2021/08/28 03:36:36;;;;;;;4.10;2.97;;;;;;;14.92;77.40;101980.59;5061265;28;20056;-81
2021/08/28 03:39:02;;;;;;;3.92;3.08;;;;;;;14.90;77.47;101974.59;5071035;28;20056;-81
2021/08/28 03:41:27;;;;;;;5.20;2.85;;;;;;;14.91;77.24;101981.72;5084812;28;20035;-82
2021/08/28 03:43:53;;;;;;;5.50;2.75;;;;;;;14.91;77.03;101976.22;5087304;28;20057;-81
2021/08/28 03:46:18;;;;;;;5.07;2.95;;;;;;;14.93;77.27;101985.03;5093222;28;20028;-81
2021/08/28 03:48:45;;;;;;;3.92;3.15;;;;;;;14.92;77.45;101977.88;5090998;28;20381;-81
2021/08/28 03:51:10;;;;;;;4.45;3.35;;;;;;;14.90;77.41;101980.09;5090538;28;20496;-81
2021/08/28 03:53:36;;;;;;;3.72;3.08;;;;;;;14.89;77.44;101981.16;5089064;28;20024;-81
2021/08/28 03:56:01;;;;;;;4.18;3.30;;;;;;;14.89;77.42;101975.66;5075196;28;20035;-81
2021/08/28 03:58:27;;;;;;;4.95;2.92;;;;;;;14.88;77.45;101977.59;5081615;28;20110;-82
2021/08/28 04:00:52;;;;;;;4.88;2.97;;;;;;;14.87;77.24;101975.97;5092788;28;20176;-82
2021/08/28 04:03:18;;;;;;;3.75;3.08;;;;;;;14.87;77.25;101973.22;5090466;28;20028;-80
2021/08/28 04:05:43;;;;;;;4.18;2.78;;;;;;;14.87;77.25;101980.63;5087450;28;20054;-81
2021/08/28 04:08:09;;;;;;;3.95;2.83;;;;;;;14.87;77.44;101975.13;5068429;28;20036;-81
2021/08/28 04:10:35;;;;;;;6.00;3.40;;;;;;;14.88;77.38;101982.28;5086453;28;20085;-81
2021/08/28 04:13:00;;;;;;;4.55;3.30;;;;;;;14.88;77.38;101976.78;5093889;28;20024;-80
2021/08/28 04:15:25;;;;;;;4.20;3.28;;;;;;;14.87;77.60;101980.63;5093461;28;20027;-82
2021/08/28 04:17:51;;;;;;;5.22;3.20;;;;;;;14.87;77.34;101966.91;5092541;28;20375;-82
2021/08/28 04:20:16;;;;;;;4.95;3.00;;;;;;;14.86;77.37;101979.78;5090415;28;20028;-81
2021/08/28 04:22:42;;;;;;;5.93;3.28;;;;;;;14.85;77.43;101978.16;5094965;28;20039;-81
2021/08/28 04:25:08;;;;;;;4.85;3.55;;;;;;;14.85;77.61;101971.84;5092875;28;20040;-81
2021/08/28 04:27:34;;;;;;;5.68;3.72;;;;;;;14.85;77.53;101980.06;5090517;28;20020;-82
2021/08/28 04:29:59;;;;;;;3.75;3.25;;;;;;;14.86;77.70;101981.72;5094864;28;20461;-82
2021/08/28 04:32:24;;;;;;;4.57;3.45;;;;;;;14.87;77.57;101973.22;5091768;28;20066;-82
2021/08/28 04:34:50;;;;;;;3.92;3.35;;;;;;;14.87;77.44;101980.63;5095829;28;20046;-81
2021/08/28 04:37:15;;;;;;;4.30;3.53;;;;;;;14.87;77.69;101989.69;5094710;28;20027;-81
2021/08/28 04:39:41;;;;;;;4.78;3.28;;;;;;;14.88;77.68;101993.25;5092298;28;20048;-81
2021/08/28 04:42:06;;;;;;;5.45;2.92;;;;;;;14.88;77.65;101983.09;5093461;28;20024;-82
2021/08/28 04:44:32;;;;;;;5.90;3.45;;;;;;;14.88;77.73;101979.53;5094391;28;20067;-81
2021/08/28 04:46:57;;;;;;;6.60;3.53;;;;;;;14.88;77.46;101990.50;5095052;28;20172;-82
2021/08/28 04:49:23;;;;;;;3.85;3.15;;;;;;;14.89;77.67;101994.88;5089235;28;20473;-81
2021/08/28 04:51:48;;;;;;;4.65;3.60;;;;;;;14.91;77.69;101987.22;5092285;28;20372;-81
2021/08/28 04:54:14;;;;;;;6.00;3.72;;;;;;;14.93;77.64;101993.25;5081332;28;20074;-82
2021/08/28 04:56:39;;;;;;;4.78;2.92;;;;;;;14.94;77.49;101986.66;5089161;28;20028;-81
2021/08/28 04:59:04;;;;;;;4.55;3.55;;;;;;;14.96;77.61;101983.66;5084496;28;20032;-81
2021/08/28 05:01:31;;;;;;;5.30;3.67;;;;;;;14.96;77.49;101980.91;5090471;28;20097;-81
2021/08/28 05:03:57;;;;;;;4.88;3.42;;;;;;;14.97;77.46;101985.28;5094350;28;20024;-81
2021/08/28 05:06:22;;;;;;;4.63;3.65;;;;;;;14.99;77.42;101981.16;5091113;28;20028;-81
2021/08/28 05:08:47;;;;;;;5.53;3.67;;;;;;;15.00;77.73;101980.06;5091640;28;20024;-81
2021/08/28 05:11:13;;;;;;;4.43;3.50;;;;;;;15.00;77.42;101982.81;5091705;28;20434;-81
2021/08/28 05:13:39;;;;;;;6.57;3.08;;;;;;;15.02;77.27;101980.63;5095863;28;20016;-81
2021/08/28 05:16:05;;;;;;;4.60;3.28;;;;;;;15.01;77.23;101984.47;5091878;28;20024;-80
2021/08/28 05:18:30;;;;;;;6.13;3.28;;;;;;;15.03;77.19;101992.44;5094112;28;20059;-81
2021/08/28 05:20:56;;;;;;;5.70;3.33;;;;;;;15.05;77.43;101987.50;5090555;28;20021;-81
2021/08/28 05:23:21;;;;;;;5.85;3.42;;;;;;;15.05;77.16;101971.81;5090736;28;20355;-81
2021/08/28 05:25:47;;;;;;;5.20;3.72;;;;;;;15.04;77.23;101972.94;5087655;28;20036;-81
2021/08/28 05:28:12;;;;;;;6.20;3.92;;;;;;;15.05;77.09;101976.50;5091739;28;20032;-81
2021/08/28 05:30:37;;;;;;;4.40;3.25;;;;;;;15.08;77.14;101974.03;5090412;28;20028;-81
2021/08/28 05:33:03;;;;;;;6.00;3.78;;;;;;;15.08;77.34;101971.28;5094728;28;20032;-81
2021/08/28 05:35:28;;;;;;;4.80;3.67;;;;;;;15.10;76.80;101969.09;5094544;28;20028;-81
2021/08/28 05:37:54;;;;;;;5.70;4.30;;;;;;;15.12;77.15;101976.25;5089131;28;20110;-81
2021/08/28 05:40:21;;;;;;;10.00;4.30;;;;;;;15.12;76.98;101970.75;5092706;28;20039;-82
2021/08/28 05:42:46;;;;;;;6.05;4.10;;;;;;;15.13;77.07;101977.88;5083050;28;20033;-81
2021/08/28 05:45:11;;;;;;;8.23;4.13;;;;;;;15.14;77.04;101968.53;5084484;28;20032;-82
2021/08/28 05:47:37;;;;;;;5.13;3.58;;;;;;;15.12;76.93;101970.75;5084786;28;20031;-81
2021/08/28 05:50:03;;;;;;;5.82;4.10;;;;;;;15.13;76.96;101969.63;5069941;28;20036;-81
2021/08/28 05:52:29;;;;;;;6.15;3.92;;;;;;;15.14;77.12;101960.28;5091410;28;20100;-82
2021/08/28 05:54:54;;;;;;;6.68;4.70;;;;;;;15.13;76.89;101956.72;5084196;28;20024;-82
2021/08/28 05:57:19;;;;;;;5.05;3.55;;;;;;;15.16;77.05;101958.09;5085985;28;20025;-81
2021/08/28 05:59:45;;;;;;;6.50;4.65;;;;;;;15.17;76.91;101957.84;5077676;28;20047;-81
2021/08/28 06:02:11;;;;;;;6.47;4.28;;;;;;;15.20;76.64;101957.28;5083769;28;20437;-82
2021/08/28 06:04:38;;;;;;;9.60;4.55;;;;;;;15.23;76.85;101956.72;5087227;28;20038;-81
2021/08/28 06:07:04;;;;;;;6.70;4.20;;;;;;;15.26;76.88;101947.09;5084558;28;20536;-81
2021/08/28 06:09:29;;;;;;;6.38;4.57;;;;;;;15.29;76.67;101949.28;5091371;28;20027;-81
2021/08/28 06:11:56;;;;;;;6.30;4.97;;;;;;;15.33;76.75;101942.13;5093157;28;20054;-80
2021/08/28 06:14:21;;;;;;;6.50;4.53;;;;;;;15.35;76.62;101942.69;5094120;28;20318;-80
2021/08/28 06:16:46;;;;;;;6.88;4.43;;;;;;;15.40;76.57;101939.94;5089752;28;20028;-80
2021/08/28 06:19:12;;;;;;;6.63;4.50;;;;;;;15.44;76.44;101938.28;5088252;28;20036;-79
2021/08/28 06:21:37;;;;;;;5.03;3.83;;;;;;;15.45;76.38;101926.19;5091410;28;20024;-80
2021/08/28 06:24:03;;;;;;;6.13;4.63;;;;;;;15.48;76.19;101936.59;5091951;28;20024;-78
2021/08/28 06:26:28;;;;;;;6.70;4.13;;;;;;;15.48;76.10;101938.53;5092575;28;20032;-79
2021/08/28 06:28:54;;;;;;;7.90;4.53;;;;;;;15.50;76.09;101931.66;5087831;28;20481;-80
2021/08/28 06:31:19;;;;;;;10.75;4.60;;;;;;;15.52;76.01;101932.22;5089846;28;20047;-81
2021/08/28 06:33:44;;;;;;;6.15;4.70;;;;;;;15.59;75.86;101936.59;5089743;28;20028;-84
2021/08/28 06:36:11;;;;;;;6.57;4.18;;;;;;;15.60;75.90;101935.47;5087655;28;20412;-84
2021/08/28 06:38:37;;;;;;;6.47;4.10;;;;;;;15.64;75.80;101947.56;5092151;28;20044;-84
2021/08/28 06:41:02;;;;;;;6.20;4.38;;;;;;;15.71;75.65;101948.13;5092031;28;20093;-84
2021/08/28 06:43:28;;;;;;;6.63;4.45;;;;;;;15.77;75.41;101938.75;5088635;28;20031;-84
2021/08/28 06:45:54;;;;;;;6.30;4.32;;;;;;;15.84;75.36;101939.28;5092403;28;20099;-84
2021/08/28 06:48:19;;;;;;;5.72;3.90;;;;;;;15.90;75.07;101927.13;5086962;28;20024;-83
2021/08/28 06:50:44;;;;;;;9.43;4.38;;;;;;;15.97;74.92;101933.16;5089566;28;20035;-84
2021/08/28 06:53:11;;;;;;;5.97;3.92;;;;;;;16.03;74.65;101936.72;5089357;28;20020;-83
2021/08/28 06:55:36;;;;;;;6.07;4.43;;;;;;;16.06;74.30;101927.06;5092244;28;20074;-84
2021/08/28 06:58:02;;;;;;;6.35;4.20;;;;;;;16.02;74.10;101929.56;5091857;28;20032;-85
2021/08/28 07:00:27;;;;;;;7.13;4.43;;;;;;;16.02;74.12;101934.25;5088907;28;20522;-82
2021/08/28 07:02:52;;;;;;;7.50;3.88;;;;;;;16.02;73.92;101926.00;5085437;28;20485;-85
2021/08/28 07:05:18;;;;;;;6.97;4.07;;;;;;;16.03;74.01;101941.41;5075244;28;20035;-86
2021/08/28 07:07:44;;;;;;;10.60;4.38;;;;;;;16.07;73.72;101931.47;5083681;28;20024;-82
2021/08/28 07:10:11;;;;;;;5.93;3.40;;;;;;;16.10;73.54;101930.91;5085141;28;20835;-84
2021/08/28 07:12:36;;;;;;;5.70;3.53;;;;;;;16.13;73.49;101928.41;5081214;28;20023;-84
2021/08/28 07:15:03;;;;;;;4.28;3.20;;;;;;;16.20;73.21;101925.34;5071744;28;20024;-84
2021/08/28 07:17:29;;;;;;;6.88;3.30;;;;;;;16.21;72.88;101924.25;5085812;28;20039;-85
2021/08/28 07:19:54;;;;;;;6.45;3.03;;;;;;;16.24;73.14;101931.94;5080060;28;20408;-85
2021/08/28 07:22:19;;;;;;;5.35;3.33;;;;;;;16.30;72.55;101919.78;5072885;28;20033;-83
2021/08/28 07:24:45;;;;;;;4.43;2.92;;;;;;;16.31;72.13;101937.13;5085939;28;20032;-84
2021/08/28 07:27:10;;;;;;;4.30;2.85;;;;;;;16.39;72.13;101923.56;5089189;28;20032;-84
2021/08/28 07:29:36;;;;;;;3.63;2.75;;;;;;;16.46;71.94;101927.94;5079330;28;20025;-84
2021/08/28 07:32:01;;;;;;;6.20;3.40;;;;;;;16.53;71.76;101925.69;5083842;28;20028;-84
2021/08/28 07:34:27;;;;;;;5.78;2.38;;;;;;;16.64;71.74;101939.09;5089599;28;20365;-88
2021/08/28 07:36:52;;;;;;;5.40;3.13;;;;;;;16.78;71.36;101930.22;5086131;28;20035;-84
2021/08/28 07:39:18;;;;;;;4.90;2.97;;;;;;;16.84;71.00;101924.38;5083351;28;20051;-85
2021/08/28 07:41:45;;;;;;;4.03;2.60;;;;;;;16.89;70.59;101920.78;5091358;28;20036;-84
2021/08/28 07:44:10;;;;;;;3.88;2.70;;;;;;;17.00;70.38;101916.81;5090288;28;20393;-83
2021/08/28 07:46:36;;;;;;;5.03;3.10;;;;;;;17.08;69.50;101915.38;5092711;28;20031;-83
2021/08/28 07:49:01;;;;;;;5.50;2.80;;;;;;;17.11;69.57;101922.22;5095506;28;20073;-86
2021/08/28 07:51:26;;;;;;;7.15;2.83;;;;;;;17.11;69.19;101928.56;5096305;28;20024;-83
2021/08/28 07:53:52;;;;;;;5.07;2.72;;;;;;;17.20;69.14;101926.81;5091678;28;20017;-86
2021/08/28 07:56:17;;;;;;;5.13;2.65;;;;;;;17.28;68.88;101922.59;5087089;28;20381;-83
2021/08/28 07:58:43;;;;;;;4.20;2.80;;;;;;;17.33;68.59;101918.97;5091379;28;20504;-75
2021/08/28 08:01:11;;;;;;;6.65;2.85;;;;;;;17.31;68.42;101927.53;5086575;28;20035;-75
2021/08/28 08:03:37;;;;;;;5.13;2.38;;;;;;;17.29;68.05;101924.22;5094218;28;20024;-75
2021/08/28 08:06:02;;;;;;;4.55;2.40;;;;;;;17.29;68.27;101927.81;5088298;28;20535;-75
2021/08/28 08:08:28;;;;;;;5.88;2.45;;;;;;;17.36;68.13;101921.16;5089124;28;20417;-76
2021/08/28 08:10:53;;;;;;;4.80;2.50;;;;;;;17.44;68.00;101920.50;5074446;28;20031;-75
2021/08/28 08:13:19;;;;;;;3.30;2.65;;;;;;;17.57;67.81;101925.31;5094632;28;20020;-75
2021/08/28 08:15:44;;;;;;;3.80;2.83;;;;;;;17.69;67.52;101920.19;5095566;28;20427;-76
2021/08/28 08:18:10;;;;;;;5.00;2.58;;;;;;;17.71;67.14;101923.50;5095175;28;20024;-75
2021/08/28 08:20:35;;;;;;;3.90;2.42;;;;;;;17.80;66.92;101923.69;5095461;28;20032;-75
2021/08/28 08:23:03;;;;;;;3.20;2.60;;;;;;;17.87;66.71;101917.81;5095404;28;20020;-75
2021/08/28 08:25:28;;;;;;;3.80;2.45;;;;;;;17.92;66.24;101910.31;5095598;28;20095;-75
2021/08/28 08:27:53;;;;;;;5.15;2.90;;;;;;;18.01;66.21;101913.22;5093345;28;20176;-75
2021/08/28 08:30:19;;;;;;;3.40;2.20;;;;;;;18.08;65.73;101901.81;5091962;28;20443;-75
2021/08/28 08:32:44;;;;;;;3.60;2.60;;;;;;;18.08;65.50;101910.91;5093175;28;20042;-76
2021/08/28 08:35:10;;;;;;;5.03;2.45;;;;;;;18.09;65.49;101914.50;5094321;28;20024;-77
2021/08/28 08:37:35;;;;;;;4.05;2.45;;;;;;;18.03;65.16;101910.97;5095399;28;20031;-77
2021/08/28 08:40:01;;;;;;;3.05;2.60;;;;;;;17.97;65.60;101912.16;5093694;28;20370;-76
2021/08/28 08:42:26;;;;;;;5.53;2.53;;;;;;;17.90;65.25;101917.22;5093322;28;20032;-77
2021/08/28 08:44:52;;;;;;;3.53;2.25;;;;;;;17.87;65.41;101917.81;5076463;28;20019;-76
2021/08/28 08:47:17;;;;;;;4.03;2.80;;;;;;;18.04;65.34;101918.13;5069906;28;20020;-75
2021/08/28 08:49:43;;;;;;;4.70;2.80;;;;;;;18.17;64.87;101920.16;5086650;28;20512;-76
2021/08/28 08:52:08;;;;;;;4.20;2.50;;;;;;;18.33;64.80;101925.44;5050144;28;20462;-76
2021/08/28 08:54:34;;;;;;;4.70;2.50;;;;;;;18.50;64.48;101928.53;5093176;28;20028;-77
2021/08/28 08:57:00;;;;;;;3.80;2.60;;;;;;;18.64;64.25;101923.88;5093318;28;20099;-77
2021/08/28 08:59:25;;;;;;;3.70;2.47;;;;;;;18.64;63.65;101915.59;5092842;28;20032;-76
2021/08/28 09:01:50;;;;;;;4.07;2.40;;;;;;;18.66;63.24;101922.75;5074996;28;20028;-76
2021/08/28 09:04:16;;;;;;;2.70;2.30;;;;;;;18.68;63.45;101920.50;5079828;28;20062;-76
2021/08/28 09:06:46;;;;;;;3.13;2.70;;;;;;;18.66;63.06;101918.06;5092737;28;20389;-76
2021/08/28 09:09:11;;;;;;;3.13;2.22;;;;;;;18.61;63.33;101918.13;5092936;28;20027;-76
2021/08/28 09:11:37;;;;;;;3.78;2.47;;;;;;;18.55;63.19;101909.13;5094141;28;20059;-76
2021/08/28 09:14:16;;;;;;;2.92;2.22;;;;;;;18.50;63.04;101914.72;5092586;28;20051;-76
2021/08/28 09:16:43;;;;;;;2.45;1.95;;;;;;;18.43;62.88;101908.75;5092477;28;20544;-75
2021/08/28 09:19:08;;;;;;;3.72;2.63;;;;;;;18.34;63.02;101918.84;5093931;28;20549;-76
2021/08/28 09:21:34;;;;;;;4.00;2.47;;;;;;;18.30;63.20;101913.06;5092754;28;20035;-76
2021/08/28 09:24:05;;;;;;;3.63;2.65;;;;;;;18.34;62.97;101918.84;5091295;28;20024;-76
2021/08/28 09:26:35;;;;;;;3.75;2.50;;;;;;;18.49;62.76;101913.06;5089194;28;20077;-76
2021/08/28 09:29:00;;;;;;;6.88;2.63;;;;;;;18.63;62.74;101913.97;5069187;28;20107;-76
2021/08/28 09:31:43;;;;;;;5.43;2.47;;;;;;;18.76;62.16;101908.81;5080564;28;20470;-75
2021/08/28 09:34:17;;;;;;;;;;;;;;;18.92;62.46;101903.84;5087134;28;20047;-76
2021/08/28 09:36:43;;;;;;;2.70;2.35;;;;;;;18.98;61.85;101908.16;5093858;28;19951;-76
2021/08/28 09:39:08;;;;;;;4.80;2.70;;;;;;;19.01;61.96;101908.34;5090693;28;20048;-76
2021/08/28 09:41:34;;;;;;;3.85;2.45;;;;;;;18.99;61.37;101901.50;5090792;28;20024;-75
2021/08/28 09:44:06;;;;;;;5.00;2.00;;;;;;;19.01;61.16;101894.53;5091676;28;20036;-77
2021/08/28 09:46:31;;;;;;;2.63;2.17;;;;;;;19.05;61.03;101901.09;5092898;28;20024;-76
2021/08/28 09:49:00;;;;;;;3.88;2.53;;;;;;;19.04;61.41;101902.25;5083617;28;20031;-76
2021/08/28 09:51:26;;;;;;;4.38;2.53;;;;;;;19.11;61.25;101906.53;5093888;28;20028;-77
2021/08/28 09:54:01;;;;;;;3.05;2.15;;;;;;;19.04;61.23;101906.94;5092548;28;20050;-76
2021/08/28 09:56:29;;;;;;;3.17;2.28;;;;;;;18.93;61.01;101906.28;5093679;28;20027;-77
2021/08/28 09:58:54;;;;;;;4.35;2.65;;;;;;;18.79;61.08;101910.97;5093475;28;20024;-77
2021/08/28 10:01:21;;;;;;;2.97;2.10;;;;;;;18.67;61.15;101902.31;5092401;28;20066;-77
2021/08/28 10:03:57;;;;;;;3.70;2.88;;;;;;;18.49;61.21;101899.25;5093743;28;20019;-78
2021/08/28 10:06:22;;;;;;;5.57;2.28;;;;;;;18.39;61.55;101902.19;5072506;28;20021;-76
2021/08/28 10:08:48;;;;;;;5.63;2.50;;;;;;;18.34;61.77;101893.97;5092848;28;20571;-77
2021/08/28 10:11:13;;;;;;;4.93;2.60;;;;;;;18.35;61.64;101903.91;5092319;28;20028;-77
2021/08/28 10:13:39;;;;;;;3.25;2.08;;;;;;;18.36;61.72;101891.72;5092132;28;20016;-76
2021/08/28 10:16:04;;;;;;;3.15;2.35;;;;;;;18.37;61.61;101887.84;5092046;28;20385;-76
2021/08/28 10:18:30;;;;;;;3.00;2.20;;;;;;;18.40;61.61;101887.25;5075327;28;20028;-76
2021/08/28 10:21:00;;;;;;;2.50;1.90;;;;;;;18.40;61.72;101890.00;5092339;28;20027;-76
2021/08/28 10:23:26;;;;;;;3.28;2.15;;;;;;;18.42;61.46;101883.06;5075044;28;20028;-77
2021/08/28 10:25:52;;;;;;;3.75;2.20;;;;;;;18.50;61.47;101884.34;5093510;28;20024;-78
2021/08/28 10:28:18;;;;;;;4.35;2.22;;;;;;;18.55;61.59;101880.66;5075312;28;20020;-76
2021/08/28 10:30:43;;;;;;;3.10;2.50;;;;;;;18.59;61.63;101878.94;5093209;28;20402;-77
2021/08/28 10:33:09;;;;;;;5.28;1.88;;;;;;;18.62;61.37;101879.16;5075027;28;20070;-77
2021/08/28 10:35:35;;;;;;;3.38;1.98;;;;;;;18.63;61.30;101878.06;5075408;28;20020;-75
2021/08/28 10:38:01;;;;;;;2.85;2.00;;;;;;;18.70;61.18;101874.06;5091815;28;20423;-76
2021/08/28 10:40:29;;;;;;;3.83;1.95;;;;;;;18.70;60.87;101874.88;5091600;28;20458;-76
2021/08/28 10:42:55;;;;;;;3.38;2.00;;;;;;;18.70;61.15;101874.06;5074984;28;20078;-77
2021/08/28 10:45:28;;;;;;;4.90;2.05;;;;;;;18.66;61.00;101884.06;5093063;28;20063;-77
2021/08/28 10:47:58;;;;;;;3.55;1.90;;;;;;;18.64;60.82;101871.41;5093109;28;20020;-77
2021/08/28 10:50:23;;;;;;;2.67;1.92;;;;;;;18.67;60.90;101874.69;5092990;28;20016;-76
2021/08/28 10:52:49;;;;;;;2.55;1.80;;;;;;;18.66;60.68;101881.31;5092087;28;20016;-77
2021/08/28 10:55:15;;;;;;;3.05;2.30;;;;;;;18.66;60.69;101881.31;5092655;28;20473;-76
2021/08/28 10:57:40;;;;;;;2.30;1.73;;;;;;;18.66;60.74;101884.06;5074734;28;20031;-76
2021/08/28 11:00:14;;;;;;;3.45;1.92;;;;;;;18.60;60.73;101881.38;5089696;28;20054;-76
2021/08/28 11:02:56;;;;;;;6.25;2.35;;;;;;;18.52;60.93;101867.44;5087346;28;20074;-77
2021/08/28 11:05:28;;;;;;;3.28;2.08;;;;;;;18.46;60.91;101879.72;5091527;28;20503;-76
2021/08/28 11:08:19;;;;;;;;;;;;;;;18.44;60.89;101880.00;5092153;28;20024;-77
2021/08/28 11:11:24;;;;;;;3.05;2.20;;;;;;;18.46;60.94;101874.19;5088526;28;19915;-77
2021/08/28 11:13:53;;;;;;;2.90;1.80;;;;;;;18.55;60.95;101872.38;5087054;28;20027;-77
2021/08/28 11:16:41;;;;;;;3.97;2.42;;;;;;;18.61;60.43;101866.47;5092291;28;20160;-77
2021/08/28 11:19:07;;;;;;;2.88;2.13;;;;;;;18.59;60.56;101860.44;5092300;28;20073;-77
2021/08/28 11:21:46;;;;;;;4.68;2.28;;;;;;;18.56;60.48;101866.56;5076151;28;20032;-77
2021/08/28 11:24:16;;;;;;;4.78;2.97;;;;;;;18.60;60.36;101869.53;5096597;28;20408;-77
2021/08/28 11:26:41;;;;;;;6.10;2.40;;;;;;;18.61;60.54;101868.41;5095567;28;20020;-77